createdAt,value
2022-08-14T00:02:20.040Z,36.22
2022-08-14T00:05:06.988Z,41.00
2022-08-14T00:07:47.265Z,42.72
2022-08-14T00:10:51.363Z,40.85
2022-08-14T00:13:35.610Z,39.45
2022-08-14T00:16:41.627Z,39.20
2022-08-14T00:19:29.973Z,35.13
2022-08-14T00:22:15.545Z,35.92
2022-08-14T00:25:22.951Z,37.22
2022-08-14T00:28:10.976Z,33.28
2022-08-14T00:31:04.694Z,35.60
2022-08-14T00:33:53.028Z,36.70
2022-08-14T00:36:49.229Z,39.47
2022-08-14T00:39:36.987Z,35.92
2022-08-14T00:42:55.034Z,43.67
2022-08-14T00:45:24.419Z,35.50
2022-08-14T00:48:10.902Z,37.58
2022-08-14T00:50:53.457Z,35.38
2022-08-14T00:53:43.762Z,38.33
2022-08-14T00:56:25.826Z,31.88
2022-08-14T00:59:17.950Z,30.30
2022-08-14T01:02:00.806Z,29.27
2022-08-14T01:04:54.231Z,30.35
2022-08-14T01:07:50.408Z,26.88
2022-08-14T01:10:51.353Z,28.90
2022-08-14T01:13:42.992Z,27.85
2022-08-14T01:16:27.381Z,26.60
2022-08-14T01:19:36.882Z,49.75
2022-08-14T01:22:20.058Z,26.02
2022-08-14T01:25:07.858Z,26.23
2022-08-14T01:27:56.948Z,27.00
2022-08-14T01:30:44.939Z,52.38
2022-08-14T01:33:29.177Z,48.63
2022-08-14T01:36:21.151Z,35.60
2022-08-14T01:39:12.818Z,36.85
2022-08-14T01:42:03.902Z,37.05
2022-08-14T01:44:58.667Z,46.80
2022-08-14T01:47:45.879Z,48.35
2022-08-14T01:50:29.013Z,54.92
2022-08-14T01:53:16.908Z,52.67
2022-08-14T01:55:58.773Z,48.00
2022-08-14T01:58:57.176Z,48.65
2022-08-14T02:01:41.995Z,45.85
2022-08-14T02:04:56.617Z,44.17
2022-08-14T02:07:53.785Z,44.38
2022-08-14T02:10:48.881Z,41.08
2022-08-14T02:13:37.201Z,43.80
2022-08-14T02:16:22.440Z,39.90
2022-08-14T02:19:12.865Z,35.50
2022-08-14T02:22:03.359Z,39.88
2022-08-14T02:24:45.303Z,45.28
2022-08-14T02:28:23.733Z,36.90
2022-08-14T02:30:38.315Z,41.85
2022-08-14T02:33:25.838Z,35.67
2022-08-14T02:37:02.921Z,35.40
2022-08-14T02:39:17.844Z,33.40
2022-08-14T02:42:06.801Z,33.35
2022-08-14T02:44:59.801Z,32.50
2022-08-14T02:47:39.924Z,28.80
2022-08-14T02:50:34.836Z,26.08
2022-08-14T03:12:34.347Z,36.87
2022-08-14T03:15:21.409Z,31.30
2022-08-14T03:18:09.342Z,26.98
2022-08-14T03:20:58.381Z,25.52
2022-08-14T03:23:39.159Z,28.05
2022-08-14T03:26:32.339Z,27.33
2022-08-14T03:29:14.475Z,24.80
2022-08-14T03:32:02.333Z,26.17
2022-08-14T03:34:48.410Z,18.42
2022-08-14T03:39:11.817Z,22.15
2022-08-14T03:40:43.602Z,19.60
2022-08-14T03:43:34.320Z,22.50
2022-08-14T03:46:52.715Z,21.63
2022-08-14T03:49:29.483Z,26.38
2022-08-14T03:52:28.145Z,26.92
2022-08-14T03:55:14.431Z,27.70
2022-08-14T03:58:02.330Z,30.40
2022-08-14T04:00:46.311Z,23.75
2022-08-14T04:03:33.347Z,25.10
2022-08-14T04:06:21.135Z,24.98
2022-08-14T04:09:08.319Z,23.65
2022-08-14T04:11:49.426Z,36.38
2022-08-14T04:14:37.477Z,26.50
2022-08-14T04:17:25.278Z,21.77
2022-08-14T04:20:14.289Z,21.90
2022-08-14T04:23:18.506Z,25.65
2022-08-14T04:26:14.629Z,22.48
2022-08-14T04:29:06.998Z,25.77
2022-08-14T04:32:58.633Z,25.98
2022-08-14T04:35:07.678Z,23.73
2022-08-14T04:38:37.280Z,25.55
2022-08-14T04:41:33.959Z,23.55
2022-08-14T04:44:26.562Z,26.83
2022-08-14T04:48:01.264Z,24.38
2022-08-14T04:50:58.360Z,24.77
2022-08-14T04:53:43.002Z,27.83
2022-08-14T04:56:31.475Z,28.15
2022-08-14T04:59:21.282Z,23.65
2022-08-14T05:02:01.740Z,25.25
2022-08-14T05:04:57.079Z,26.25
2022-08-14T05:07:46.347Z,26.42
2022-08-14T05:10:34.243Z,22.88
2022-08-14T05:13:24.572Z,25.17
2022-08-14T05:16:20.252Z,22.08
2022-08-14T05:19:18.938Z,19.15
2022-08-14T05:22:17.495Z,19.63
2022-08-14T05:25:07.259Z,21.67
2022-08-14T05:27:47.339Z,22.55
2022-08-14T05:30:34.244Z,21.13
2022-08-14T05:33:21.254Z,19.25
2022-08-14T05:36:04.976Z,31.75
2022-08-14T05:38:57.238Z,20.08
2022-08-14T05:41:52.322Z,21.30
2022-08-14T05:44:41.216Z,24.80
2022-08-14T05:47:28.542Z,22.45
2022-08-14T05:50:26.254Z,19.05
2022-08-14T05:53:23.231Z,22.30
2022-08-14T05:58:50.225Z,19.15
2022-08-14T06:01:31.554Z,25.65
2022-08-14T06:04:19.198Z,21.17
2022-08-14T06:06:59.689Z,26.67
2022-08-14T06:09:50.943Z,24.00
2022-08-14T06:12:56.569Z,26.23
2022-08-14T06:15:37.186Z,25.38
2022-08-14T06:18:18.131Z,24.20
2022-08-14T06:21:05.183Z,26.63
2022-08-14T06:24:00.222Z,20.95
2022-08-14T06:26:40.428Z,27.77
2022-08-14T06:29:33.368Z,19.20
2022-08-14T06:32:36.593Z,22.00
2022-08-14T06:35:23.169Z,19.00
2022-08-14T06:38:06.284Z,18.63
2022-08-14T06:40:54.183Z,23.38
2022-08-14T06:43:41.177Z,18.70
2022-08-14T06:46:37.026Z,17.42
2022-08-14T06:49:24.186Z,18.88
2022-08-14T06:52:15.054Z,19.05
2022-08-14T06:55:04.171Z,20.27
2022-08-14T06:57:53.191Z,17.13
2022-08-14T07:00:35.262Z,25.00
2022-08-14T07:03:41.175Z,16.50
2022-08-14T07:06:46.435Z,22.90
2022-08-14T07:09:43.897Z,19.40
2022-08-14T07:12:56.316Z,19.20
2022-08-14T07:15:45.141Z,21.02
2022-08-14T07:18:36.117Z,20.88
2022-08-14T07:21:23.130Z,19.00
2022-08-14T07:24:22.127Z,22.38
2022-08-14T07:27:17.232Z,21.02
2022-08-14T07:29:57.167Z,17.52
2022-08-14T07:32:44.125Z,23.10
2022-08-14T07:35:24.280Z,18.13
2022-08-14T07:38:29.688Z,16.63
2022-08-14T07:41:24.166Z,17.02
2022-08-14T07:44:31.987Z,18.85
2022-08-14T07:47:18.111Z,18.13
2022-08-14T07:50:11.569Z,15.43
2022-08-14T07:53:03.110Z,16.88
2022-08-14T07:56:09.062Z,19.20
2022-08-14T07:58:52.584Z,16.35
2022-08-14T08:01:33.577Z,16.27
2022-08-14T08:04:25.034Z,14.65
2022-08-14T08:07:05.829Z,19.58
2022-08-14T08:09:58.113Z,17.98
2022-08-14T08:12:46.313Z,17.00
2022-08-14T08:15:28.249Z,18.60
2022-08-14T08:18:27.703Z,15.70
2022-08-14T08:21:09.405Z,19.20
2022-08-14T08:24:01.077Z,16.67
2022-08-14T08:26:50.377Z,19.45
2022-08-14T08:29:38.110Z,17.15
2022-08-14T08:32:22.561Z,18.85
2022-08-14T08:35:24.049Z,20.58
2022-08-14T08:39:15.408Z,20.33
2022-08-14T08:41:35.086Z,19.02
2022-08-14T08:44:30.060Z,21.65
2022-08-14T08:47:19.061Z,24.92
2022-08-14T08:50:00.352Z,16.60
2022-08-14T08:52:55.057Z,16.70
2022-08-14T08:55:42.349Z,16.80
2022-08-14T08:58:29.032Z,17.92
2022-08-14T09:01:09.196Z,19.17
2022-08-14T09:04:14.894Z,17.48
2022-08-14T09:07:09.519Z,19.85
2022-08-14T09:10:01.112Z,19.20
2022-08-14T09:12:51.473Z,19.42
2022-08-14T09:15:42.363Z,20.05
2022-08-14T09:18:27.272Z,18.75
2022-08-14T09:21:16.147Z,19.35
2022-08-14T09:24:29.537Z,16.80
2022-08-14T09:27:03.643Z,21.65
2022-08-14T09:29:54.462Z,19.17
2022-08-14T09:33:12.611Z,18.70
2022-08-14T09:36:18.504Z,19.38
2022-08-14T09:39:39.184Z,20.85
2022-08-14T09:42:53.151Z,19.70
2022-08-14T09:45:53.443Z,20.52
2022-08-14T09:48:41.029Z,18.83
2022-08-14T09:51:25.946Z,20.23
2022-08-14T09:54:23.670Z,22.17
2022-08-14T09:57:08.948Z,21.85
2022-08-14T10:00:00.981Z,20.50
2022-08-14T10:02:52.711Z,17.48
2022-08-14T10:05:48.961Z,19.92
2022-08-14T10:08:57.028Z,19.85
2022-08-14T10:11:43.432Z,17.70
2022-08-14T10:14:37.299Z,19.50
2022-08-14T10:17:23.973Z,16.98
2022-08-14T10:20:39.387Z,19.85
2022-08-14T10:23:33.759Z,18.50
2022-08-14T10:26:28.193Z,20.00
2022-08-14T10:29:25.945Z,18.60
2022-08-14T10:32:18.233Z,18.27
2022-08-14T10:35:31.112Z,18.65
2022-08-14T10:38:12.425Z,16.58
2022-08-14T10:41:02.273Z,16.67
2022-08-14T10:43:44.816Z,15.45
2022-08-14T10:47:39.257Z,18.52
2022-08-14T10:49:42.939Z,16.65
2022-08-14T10:52:45.213Z,16.38
2022-08-14T10:55:39.460Z,15.43
2022-08-14T10:58:41.916Z,14.93
2022-08-14T11:01:41.548Z,14.75
2022-08-14T11:04:37.944Z,17.52
2022-08-14T11:07:25.937Z,15.30
2022-08-14T11:10:14.959Z,18.60
2022-08-14T11:13:11.909Z,15.60
2022-08-14T11:15:59.917Z,14.35
2022-08-14T11:18:40.669Z,15.15
2022-08-14T11:21:30.303Z,16.45
2022-08-14T11:24:50.554Z,16.60
2022-08-14T11:27:33.321Z,17.20
2022-08-14T11:30:49.832Z,16.65
2022-08-14T11:33:19.888Z,16.48
2022-08-14T11:36:18.411Z,18.77
2022-08-14T11:38:59.028Z,15.15
2022-08-14T11:41:55.885Z,18.10
2022-08-14T11:44:45.910Z,19.92
2022-08-14T11:47:43.691Z,15.80
2022-08-14T11:50:38.906Z,20.85
2022-08-14T11:53:41.926Z,21.65
2022-08-14T11:56:25.753Z,28.05
2022-08-14T11:59:26.285Z,21.17
2022-08-14T12:03:00.782Z,22.88
2022-08-14T12:05:42.855Z,21.00
2022-08-14T12:08:30.866Z,20.10
2022-08-14T12:11:26.839Z,19.33
2022-08-14T12:14:08.879Z,17.88
2022-08-14T12:17:16.849Z,20.70
2022-08-14T12:20:06.729Z,18.65
2022-08-14T12:22:58.850Z,19.55
2022-08-14T12:25:46.814Z,19.05
2022-08-14T12:29:00.173Z,22.60
2022-08-14T12:31:44.931Z,19.45
2022-08-14T12:34:33.861Z,20.45
2022-08-14T12:37:15.326Z,19.95
2022-08-14T12:40:01.935Z,20.02
2022-08-14T12:42:44.793Z,21.20
2022-08-14T12:45:46.804Z,24.05
2022-08-14T12:48:31.948Z,20.27
2022-08-14T12:51:32.782Z,18.55
2022-08-14T12:54:27.223Z,18.67
2022-08-14T12:57:22.786Z,18.48
2022-08-14T13:00:23.070Z,19.40
2022-08-14T13:03:04.806Z,18.75
2022-08-14T13:05:44.884Z,18.02
2022-08-14T13:08:33.472Z,17.08
2022-08-14T13:11:28.791Z,17.90
2022-08-14T13:14:17.345Z,16.77
2022-08-14T13:17:10.786Z,17.27
2022-08-14T13:19:55.048Z,18.15
2022-08-14T13:22:42.741Z,19.25
2022-08-14T13:25:34.611Z,16.40
2022-08-14T13:28:33.844Z,16.08
2022-08-14T13:31:23.962Z,15.70
2022-08-14T13:34:16.765Z,13.73
2022-08-14T13:37:04.408Z,17.88
2022-08-14T13:39:56.382Z,17.52
2022-08-14T13:42:49.848Z,17.15
2022-08-14T13:45:59.990Z,14.85
2022-08-14T13:48:39.745Z,13.73
2022-08-14T13:51:24.464Z,12.75
2022-08-14T13:54:12.758Z,13.25
2022-08-14T13:56:53.857Z,11.00
2022-08-14T13:59:41.765Z,12.82
2022-08-14T14:02:31.884Z,11.13
2022-08-14T14:05:21.045Z,13.90
2022-08-14T14:08:18.512Z,11.07
2022-08-14T14:11:05.747Z,12.52
2022-08-14T14:13:52.857Z,12.80
2022-08-14T14:16:33.714Z,12.35
2022-08-14T14:19:18.633Z,12.23
2022-08-14T14:22:05.740Z,12.60
2022-08-14T14:24:50.165Z,13.48
2022-08-14T14:27:41.561Z,10.30
2022-08-14T14:30:52.435Z,17.05
2022-08-14T14:33:49.504Z,13.38
2022-08-14T14:36:35.701Z,14.93
2022-08-14T14:39:23.766Z,14.10
2022-08-14T14:42:06.265Z,13.48
2022-08-14T14:44:59.732Z,17.60
2022-08-14T14:47:39.865Z,11.32
2022-08-14T14:50:28.751Z,13.60
2022-08-14T14:53:12.808Z,16.33
2022-08-14T14:56:47.151Z,12.07
2022-08-14T15:14:54.808Z,18.10
2022-08-14T15:17:41.046Z,18.17
2022-08-14T15:23:18.227Z,18.15
2022-08-14T15:26:09.218Z,15.70
2022-08-14T15:29:02.775Z,15.35
2022-08-14T15:31:54.025Z,16.48
2022-08-14T15:34:46.051Z,21.27
2022-08-14T15:37:42.486Z,22.38
2022-08-14T15:40:29.208Z,20.42
2022-08-14T15:43:14.765Z,21.58
2022-08-14T15:46:03.212Z,17.25
2022-08-14T15:48:43.946Z,16.42
2022-08-14T15:51:31.236Z,31.45
2022-08-14T15:54:11.619Z,18.65
2022-08-14T15:57:12.166Z,18.25
2022-08-14T16:00:11.337Z,12.55
2022-08-14T16:03:09.626Z,12.48
2022-08-14T16:05:56.198Z,13.95
2022-08-14T16:08:38.207Z,12.32
2022-08-14T16:11:26.148Z,15.20
2022-08-14T16:14:20.584Z,13.10
2022-08-14T16:17:08.165Z,16.42
2022-08-14T16:19:49.352Z,12.35
2022-08-14T16:22:59.376Z,12.68
2022-08-14T16:25:47.108Z,11.90
2022-08-14T16:28:41.163Z,11.00
2022-08-14T16:31:36.246Z,14.73
2022-08-14T16:34:44.470Z,16.13
2022-08-14T16:37:34.004Z,14.50
2022-08-14T16:40:14.579Z,15.30
2022-08-14T16:43:12.994Z,11.88
2022-08-14T16:46:00.129Z,14.00
2022-08-14T16:48:55.394Z,11.68
2022-08-14T16:51:52.815Z,12.90
2022-08-14T16:54:44.424Z,10.50
2022-08-14T16:57:26.270Z,11.23
2022-08-14T17:00:19.758Z,10.55
2022-08-14T17:03:17.097Z,10.07
2022-08-14T17:06:04.087Z,11.15
2022-08-14T17:09:13.114Z,10.95
2022-08-14T17:12:07.549Z,9.48
2022-08-14T17:14:59.408Z,9.30
2022-08-14T17:17:45.078Z,11.32
2022-08-14T17:21:00.390Z,10.77
2022-08-14T17:23:45.077Z,9.43
2022-08-14T17:26:46.100Z,9.55
2022-08-14T17:32:57.130Z,14.75
2022-08-14T17:35:58.160Z,17.90
2022-08-14T17:39:06.640Z,24.73
2022-08-14T17:42:13.340Z,15.10
2022-08-14T17:45:08.058Z,17.75
2022-08-14T17:47:55.085Z,10.40
2022-08-14T17:51:00.259Z,12.98
2022-08-14T17:53:52.814Z,17.23
2022-08-14T17:56:36.225Z,12.50
2022-08-14T17:59:26.071Z,13.38
2022-08-14T18:02:10.553Z,11.02
2022-08-14T18:05:08.188Z,13.48
2022-08-14T18:07:59.781Z,13.18
2022-08-14T18:10:59.057Z,15.73
2022-08-14T18:13:54.032Z,12.68
2022-08-14T18:16:42.023Z,11.13
2022-08-14T18:19:23.136Z,11.57
2022-08-14T18:22:30.990Z,12.75
2022-08-14T18:25:17.425Z,11.52
2022-08-14T18:28:16.114Z,9.18
2022-08-14T18:31:28.022Z,12.18
2022-08-14T18:34:30.623Z,10.48
2022-08-14T18:37:27.002Z,10.98
2022-08-14T18:40:40.231Z,11.45
2022-08-14T18:47:20.015Z,11.55
2022-08-14T18:50:26.284Z,23.00
2022-08-14T18:53:15.196Z,12.18
2022-08-14T18:56:09.999Z,15.77
2022-08-14T18:58:59.763Z,13.25
2022-08-14T19:01:51.764Z,14.68
2022-08-14T19:04:51.016Z,20.63
2022-08-14T19:07:37.993Z,18.35
2022-08-14T19:10:19.059Z,12.40
2022-08-14T19:13:13.259Z,11.82
2022-08-14T19:16:26.211Z,13.73
2022-08-14T19:19:14.991Z,12.55
2022-08-14T19:22:12.717Z,12.38
2022-08-14T19:25:06.982Z,11.45
2022-08-14T19:27:51.300Z,12.15
2022-08-14T19:30:42.963Z,10.48
2022-08-14T19:33:51.959Z,11.27
2022-08-14T19:37:05.661Z,12.70
2022-08-14T19:40:15.425Z,13.38
2022-08-14T19:43:01.229Z,11.30
2022-08-14T19:45:51.963Z,12.23
2022-08-14T19:48:56.727Z,10.35
2022-08-14T19:51:43.951Z,12.18
2022-08-14T19:54:34.799Z,16.52
2022-08-14T19:57:29.924Z,14.73
2022-08-14T20:00:28.013Z,14.15
2022-08-14T20:03:24.022Z,12.38
2022-08-14T20:06:05.942Z,16.52
2022-08-14T20:11:00.995Z,15.70
2022-08-14T20:12:04.579Z,15.43
2022-08-14T20:14:51.914Z,15.50
2022-08-14T20:17:40.334Z,12.00
2022-08-14T20:20:32.557Z,12.48
2022-08-14T20:23:16.504Z,13.50
2022-08-14T20:26:02.890Z,14.95
2022-08-14T20:28:51.386Z,20.20
2022-08-14T20:31:38.896Z,14.95
2022-08-14T20:34:35.496Z,14.98
2022-08-14T20:37:22.736Z,14.05
2022-08-14T20:40:24.249Z,12.20
2022-08-14T20:43:29.894Z,12.75
2022-08-14T20:46:29.389Z,14.18
2022-08-14T20:49:25.896Z,16.27
2022-08-14T20:52:19.890Z,15.95
2022-08-14T20:55:07.897Z,19.80
2022-08-14T20:57:58.903Z,20.73
2022-08-14T21:00:57.904Z,15.15
2022-08-14T21:03:56.452Z,18.52
2022-08-14T21:07:22.899Z,17.90
2022-08-14T21:10:05.791Z,16.40
2022-08-14T21:13:25.665Z,16.55
2022-08-14T21:16:02.952Z,17.02
2022-08-14T21:19:01.893Z,20.20
2022-08-14T21:21:42.532Z,20.52
2022-08-14T21:24:39.635Z,22.80
2022-08-14T21:27:37.190Z,25.67
2022-08-14T21:30:46.731Z,23.73
2022-08-14T21:33:31.857Z,22.70
2022-08-14T21:36:22.069Z,22.88
2022-08-14T21:39:08.898Z,22.73
2022-08-14T21:42:01.828Z,20.27
2022-08-14T21:44:51.824Z,22.45
2022-08-14T21:47:33.217Z,21.48
2022-08-14T21:51:00.126Z,20.88
2022-08-14T21:53:25.135Z,22.05
2022-08-14T21:56:12.797Z,24.80
2022-08-14T21:58:56.634Z,21.60
2022-08-14T22:02:01.064Z,22.90
2022-08-14T22:04:44.918Z,21.23
2022-08-14T22:07:38.888Z,25.20
2022-08-14T22:10:24.272Z,21.52
2022-08-14T22:13:11.537Z,23.08
2022-08-14T22:16:02.359Z,25.00
2022-08-14T22:18:43.170Z,22.40
2022-08-14T22:21:34.824Z,25.75
2022-08-14T22:24:25.874Z,23.23
2022-08-14T22:27:17.889Z,24.52
2022-08-14T22:30:12.050Z,22.42
2022-08-14T22:32:57.589Z,24.38
2022-08-14T22:35:45.736Z,24.75
2022-08-14T22:38:36.505Z,22.85
2022-08-14T22:41:27.767Z,23.45
2022-08-14T22:44:41.766Z,19.25
2022-08-14T22:47:25.041Z,18.65
2022-08-14T22:50:31.597Z,19.33
2022-08-14T22:53:13.038Z,21.35
2022-08-14T22:55:59.741Z,20.02
2022-08-14T22:58:41.352Z,23.45
2022-08-14T23:01:57.025Z,27.65
2022-08-14T23:04:53.958Z,27.42
2022-08-14T23:08:59.123Z,26.88
2022-08-14T23:10:42.834Z,27.08
2022-08-14T23:13:31.726Z,25.00
2022-08-14T23:16:20.601Z,23.98
2022-08-14T23:19:08.712Z,21.88
2022-08-14T23:21:50.694Z,19.58
2022-08-14T23:24:42.728Z,21.67
2022-08-14T23:27:31.597Z,20.70
2022-08-14T23:30:34.633Z,19.23
2022-08-14T23:33:26.322Z,18.90
2022-08-14T23:36:32.400Z,17.05
2022-08-14T23:39:24.629Z,20.30
2022-08-14T23:42:11.732Z,20.80
2022-08-14T23:44:58.693Z,19.00
2022-08-14T23:47:51.306Z,17.33
2022-08-14T23:50:38.851Z,15.18
2022-08-14T23:53:48.748Z,15.85
2022-08-14T23:56:39.657Z,15.45
2022-08-14T23:59:30.236Z,13.73
